sensor_id;sensor_type;location;lat;lon;timestamp;pressure;altitude;pressure_sealevel;temperature;humidity
41688;BME280;27371;42.686;23.362;2024-03-02T00:02:16;164012.78;;;6.97;100.00
41688;BME280;27371;42.686;23.362;2024-03-02T00:04:44;164039.44;;;7.07;100.00
41688;BME280;27371;42.686;23.362;2024-03-02T00:07:14;164047.44;;;7.10;100.00
41688;BME280;27371;42.686;23.362;2024-03-02T00:09:39;164064.75;;;7.17;100.00
41688;BME280;27371;42.686;23.362;2024-03-02T00:12:05;164070.09;;;7.19;100.00
41688;BME280;27371;42.686;23.362;2024-03-02T00:14:31;164070.09;;;7.19;100.00
41688;BME280;27371;42.686;23.362;2024-03-02T00:16:57;164072.81;;;7.20;100.00
41688;BME280;27371;42.686;23.362;2024-03-02T00:19:22;164086.09;;;7.25;100.00
41688;BME280;27371;42.686;23.362;2024-03-02T00:21:48;164091.44;;;7.27;100.00
41688;BME280;27371;42.686;23.362;2024-03-02T00:24:41;164074.13;;;7.20;100.00
41688;BME280;27371;42.686;23.362;2024-03-02T00:27:07;164080.81;;;7.23;100.00
41688;BME280;27371;42.686;23.362;2024-03-02T00:29:33;164096.78;;;7.29;100.00
41688;BME280;27371;42.686;23.362;2024-03-02T00:32:00;164070.09;;;7.19;100.00
41688;BME280;27371;42.686;23.362;2024-03-02T00:34:26;164070.09;;;7.19;100.00
41688;BME280;27371;42.686;23.362;2024-03-02T00:36:52;164091.44;;;7.27;100.00
41688;BME280;27371;42.686;23.362;2024-03-02T00:39:18;164075.47;;;7.21;100.00
41688;BME280;27371;42.686;23.362;2024-03-02T00:41:44;164056.78;;;7.13;100.00
41688;BME280;27371;42.686;23.362;2024-03-02T00:44:12;164075.47;;;7.21;100.00
41688;BME280;27371;42.686;23.362;2024-03-02T00:46:39;164076.78;;;7.21;100.00
41688;BME280;27371;42.686;23.362;2024-03-02T00:51:36;164074.13;;;7.20;100.00
41688;BME280;27371;42.686;23.362;2024-03-02T00:54:05;164083.44;;;7.24;100.00
41688;BME280;27371;42.686;23.362;2024-03-02T00:56:32;163999.44;;;6.91;100.00
41688;BME280;27371;42.686;23.362;2024-03-02T00:58:58;164091.44;;;7.27;100.00
41688;BME280;27371;42.686;23.362;2024-03-02T01:01:32;164110.13;;;7.34;100.00
41688;BME280;27371;42.686;23.362;2024-03-02T01:03:58;164111.47;;;7.34;100.00
41688;BME280;27371;42.686;23.362;2024-03-02T01:06:23;164134.13;;;7.43;100.00
41688;BME280;27371;42.686;23.362;2024-03-02T01:08:49;164135.44;;;7.44;100.00
41688;BME280;27371;42.686;23.362;2024-03-02T01:11:16;164148.81;;;7.49;100.00
41688;BME280;27371;42.686;23.362;2024-03-02T01:13:43;164132.81;;;7.43;100.00
41688;BME280;27371;42.686;23.362;2024-03-02T01:16:09;164168.81;;;7.56;100.00
41688;BME280;27371;42.686;23.362;2024-03-02T01:18:34;164132.81;;;7.43;100.00
41688;BME280;27371;42.686;23.362;2024-03-02T01:21:00;164119.47;;;7.38;100.00
41688;BME280;27371;42.686;23.362;2024-03-02T01:23:26;164148.81;;;7.49;100.00
41688;BME280;27371;42.686;23.362;2024-03-02T01:25:52;164151.50;;;7.50;100.00
41688;BME280;27371;42.686;23.362;2024-03-02T01:28:18;164159.50;;;7.53;100.00
41688;BME280;27371;42.686;23.362;2024-03-02T01:30:46;164123.47;;;7.39;99.62
41688;BME280;27371;42.686;23.362;2024-03-02T01:33:11;164074.13;;;7.20;99.33
41688;BME280;27371;42.686;23.362;2024-03-02T01:35:37;164011.44;;;6.96;100.00
41688;BME280;27371;42.686;23.362;2024-03-02T01:38:03;163990.13;;;6.88;100.00
41688;BME280;27371;42.686;23.362;2024-03-02T01:40:30;163970.09;;;6.80;100.00
41688;BME280;27371;42.686;23.362;2024-03-02T01:42:56;163976.78;;;6.83;100.00
41688;BME280;27371;42.686;23.362;2024-03-02T01:45:24;163938.13;;;6.68;100.00
41688;BME280;27371;42.686;23.362;2024-03-02T01:47:50;163980.81;;;6.84;100.00
41688;BME280;27371;42.686;23.362;2024-03-02T01:50:16;163935.44;;;6.67;100.00
41688;BME280;27371;42.686;23.362;2024-03-02T01:52:49;164011.44;;;6.96;100.00
41688;BME280;27371;42.686;23.362;2024-03-02T01:55:15;163996.78;;;6.90;100.00
41688;BME280;27371;42.686;23.362;2024-03-02T01:57:40;163995.47;;;6.90;100.00
41688;BME280;27371;42.686;23.362;2024-03-02T02:00:07;164016.78;;;6.98;100.00
41688;BME280;27371;42.686;23.362;2024-03-02T02:02:32;163995.47;;;6.90;100.00
41688;BME280;27371;42.686;23.362;2024-03-02T02:04:58;164036.81;;;7.06;100.00
41688;BME280;27371;42.686;23.362;2024-03-02T02:07:23;164035.44;;;7.05;100.00
41688;BME280;27371;42.686;23.362;2024-03-02T02:09:49;164031.47;;;7.04;100.00
41688;BME280;27371;42.686;23.362;2024-03-02T02:12:15;164004.78;;;6.94;100.00
41688;BME280;27371;42.686;23.362;2024-03-02T02:14:47;164030.13;;;7.03;100.00
41688;BME280;27371;42.686;23.362;2024-03-02T02:17:13;164002.13;;;6.93;100.00
41688;BME280;27371;42.686;23.362;2024-03-02T02:19:40;164018.13;;;6.99;100.00
41688;BME280;27371;42.686;23.362;2024-03-02T02:22:06;163884.78;;;6.47;100.00
41688;BME280;27371;42.686;23.362;2024-03-02T02:24:32;163890.13;;;6.50;100.00
41688;BME280;27371;42.686;23.362;2024-03-02T02:26:57;163839.47;;;6.30;100.00
41688;BME280;27371;42.686;23.362;2024-03-02T02:29:23;163818.16;;;6.22;100.00
41688;BME280;27371;42.686;23.362;2024-03-02T02:31:48;163846.16;;;6.33;100.00
41688;BME280;27371;42.686;23.362;2024-03-02T02:34:15;163855.47;;;6.36;100.00
41688;BME280;27371;42.686;23.362;2024-03-02T02:36:41;163814.19;;;6.20;100.00
41688;BME280;27371;42.686;23.362;2024-03-02T02:39:10;163874.16;;;6.43;100.00
41688;BME280;27371;42.686;23.362;2024-03-02T02:41:38;163900.81;;;6.54;100.00
41688;BME280;27371;42.686;23.362;2024-03-02T02:44:04;163892.81;;;6.51;100.00
41688;BME280;27371;42.686;23.362;2024-03-02T02:46:30;163918.13;;;6.60;100.00
41688;BME280;27371;42.686;23.362;2024-03-02T02:48:56;163927.44;;;6.64;100.00
41688;BME280;27371;42.686;23.362;2024-03-02T02:51:21;163894.16;;;6.51;100.00
41688;BME280;27371;42.686;23.362;2024-03-02T02:53:47;163936.81;;;6.67;100.00
41688;BME280;27371;42.686;23.362;2024-03-02T02:56:12;163935.44;;;6.67;100.00
41688;BME280;27371;42.686;23.362;2024-03-02T02:58:40;163938.13;;;6.68;100.00
41688;BME280;27371;42.686;23.362;2024-03-02T03:01:06;163931.47;;;6.65;100.00
41688;BME280;27371;42.686;23.362;2024-03-02T03:03:33;163914.09;;;6.59;100.00
41688;BME280;27371;42.686;23.362;2024-03-02T03:05:58;163918.13;;;6.60;100.00
41688;BME280;27371;42.686;23.362;2024-03-02T03:08:24;163918.13;;;6.60;100.00
41688;BME280;27371;42.686;23.362;2024-03-02T03:10:49;163918.13;;;6.60;100.00
41688;BME280;27371;42.686;23.362;2024-03-02T03:13:15;163851.50;;;6.35;100.00
41688;BME280;27371;42.686;23.362;2024-03-02T03:15:41;163727.53;;;5.87;100.00
41688;BME280;27371;42.686;23.362;2024-03-02T03:18:07;163740.81;;;5.92;100.00
41688;BME280;27371;42.686;23.362;2024-03-02T03:20:36;163742.19;;;5.93;100.00
41688;BME280;27371;42.686;23.362;2024-03-02T03:23:01;163788.84;;;6.11;100.00
41688;BME280;27371;42.686;23.362;2024-03-02T03:25:29;163814.19;;;6.20;100.00
41688;BME280;27371;42.686;23.362;2024-03-02T03:27:55;163840.81;;;6.31;100.00
41688;BME280;27371;42.686;23.362;2024-03-02T03:30:20;163875.47;;;6.44;100.00
41688;BME280;27371;42.686;23.362;2024-03-02T03:32:46;163892.81;;;6.51;100.00
41688;BME280;27371;42.686;23.362;2024-03-02T03:35:13;163907.47;;;6.56;100.00
41688;BME280;27371;42.686;23.362;2024-03-02T03:37:40;163899.44;;;6.53;100.00
41688;BME280;27371;42.686;23.362;2024-03-02T03:40:06;163911.47;;;6.58;100.00
41688;BME280;27371;42.686;23.362;2024-03-02T03:42:37;163896.78;;;6.52;100.00
41688;BME280;27371;42.686;23.362;2024-03-02T03:45:03;163906.09;;;6.56;100.00
41688;BME280;27371;42.686;23.362;2024-03-02T03:47:31;163927.44;;;6.64;100.00
41688;BME280;27371;42.686;23.362;2024-03-02T03:49:56;163951.47;;;6.73;100.00
41688;BME280;27371;42.686;23.362;2024-03-02T03:52:23;163955.44;;;6.75;100.00
41688;BME280;27371;42.686;23.362;2024-03-02T03:54:49;163930.13;;;6.65;100.00
41688;BME280;27371;42.686;23.362;2024-03-02T03:57:15;163955.44;;;6.75;100.00
41688;BME280;27371;42.686;23.362;2024-03-02T03:59:40;163958.13;;;6.76;100.00
41688;BME280;27371;42.686;23.362;2024-03-02T04:02:06;163932.78;;;6.66;100.00
41688;BME280;27371;42.686;23.362;2024-03-02T04:04:32;163796.84;;;6.14;100.00
41688;BME280;27371;42.686;23.362;2024-03-02T04:06:58;163794.19;;;6.13;100.00
41688;BME280;27371;42.686;23.362;2024-03-02T04:09:24;163766.19;;;6.02;100.00
41688;BME280;27371;42.686;23.362;2024-03-02T04:11:50;163806.16;;;6.17;100.00
41688;BME280;27371;42.686;23.362;2024-03-02T04:14:16;163803.50;;;6.16;100.00
41688;BME280;27371;42.686;23.362;2024-03-02T04:16:42;163770.16;;;6.03;100.00
41688;BME280;27371;42.686;23.362;2024-03-02T04:19:07;163862.13;;;6.39;100.00
41688;BME280;27371;42.686;23.362;2024-03-02T04:21:33;163852.81;;;6.35;100.00
41688;BME280;27371;42.686;23.362;2024-03-02T04:23:58;163900.81;;;6.54;100.00
41688;BME280;27371;42.686;23.362;2024-03-02T04:26:27;163918.13;;;6.60;100.00
41688;BME280;27371;42.686;23.362;2024-03-02T04:28:53;163924.78;;;6.63;100.00
41688;BME280;27371;42.686;23.362;2024-03-02T04:31:19;163894.16;;;6.51;100.00
41688;BME280;27371;42.686;23.362;2024-03-02T04:33:45;163928.81;;;6.64;100.00
41688;BME280;27371;42.686;23.362;2024-03-02T04:36:10;163926.13;;;6.63;100.00
41688;BME280;27371;42.686;23.362;2024-03-02T04:38:37;163940.78;;;6.69;100.00
41688;BME280;27371;42.686;23.362;2024-03-02T04:41:04;163950.09;;;6.73;100.00
41688;BME280;27371;42.686;23.362;2024-03-02T04:43:31;163954.13;;;6.74;100.00
41688;BME280;27371;42.686;23.362;2024-03-02T04:45:58;163959.47;;;6.76;100.00
41688;BME280;27371;42.686;23.362;2024-03-02T04:48:24;163960.78;;;6.77;100.00
41688;BME280;27371;42.686;23.362;2024-03-02T04:50:49;163946.13;;;6.71;100.00
41688;BME280;27371;42.686;23.362;2024-03-02T04:53:15;163978.09;;;6.83;100.00
41688;BME280;27371;42.686;23.362;2024-03-02T04:55:40;163924.78;;;6.63;100.00
41688;BME280;27371;42.686;23.362;2024-03-02T04:58:06;163900.81;;;6.54;100.00
41688;BME280;27371;42.686;23.362;2024-03-02T05:00:32;163899.44;;;6.53;100.00
41688;BME280;27371;42.686;23.362;2024-03-02T05:02:58;163895.47;;;6.52;100.00
41688;BME280;27371;42.686;23.362;2024-03-02T05:05:23;163918.13;;;6.60;100.00
41688;BME280;27371;42.686;23.362;2024-03-02T05:07:49;163859.47;;;6.38;100.00
41688;BME280;27371;42.686;23.362;2024-03-02T05:10:14;163924.78;;;6.63;100.00
41688;BME280;27371;42.686;23.362;2024-03-02T05:12:41;163930.13;;;6.65;100.00
41688;BME280;27371;42.686;23.362;2024-03-02T05:15:10;163946.13;;;6.71;100.00
41688;BME280;27371;42.686;23.362;2024-03-02T05:17:36;163947.44;;;6.72;100.00
41688;BME280;27371;42.686;23.362;2024-03-02T05:20:03;163947.44;;;6.72;100.00
41688;BME280;27371;42.686;23.362;2024-03-02T05:22:29;163914.09;;;6.59;100.00
41688;BME280;27371;42.686;23.362;2024-03-02T05:24:55;163930.13;;;6.65;100.00
41688;BME280;27371;42.686;23.362;2024-03-02T05:27:20;163944.81;;;6.71;100.00
41688;BME280;27371;42.686;23.362;2024-03-02T05:29:46;163942.09;;;6.69;100.00
41688;BME280;27371;42.686;23.362;2024-03-02T05:32:12;163942.09;;;6.69;100.00
41688;BME280;27371;42.686;23.362;2024-03-02T05:34:38;163930.13;;;6.65;100.00
41688;BME280;27371;42.686;23.362;2024-03-02T05:37:03;163979.47;;;6.84;100.00
41688;BME280;27371;42.686;23.362;2024-03-02T05:39:29;163999.44;;;6.91;100.00
41688;BME280;27371;42.686;23.362;2024-03-02T05:41:54;164004.78;;;6.94;100.00
41688;BME280;27371;42.686;23.362;2024-03-02T05:44:20;164004.78;;;6.94;100.00
41688;BME280;27371;42.686;23.362;2024-03-02T05:46:46;163906.09;;;6.56;100.00
41688;BME280;27371;42.686;23.362;2024-03-02T05:49:11;163835.50;;;6.29;100.00
41688;BME280;27371;42.686;23.362;2024-03-02T05:51:37;163806.16;;;6.17;100.00
41688;BME280;27371;42.686;23.362;2024-03-02T05:54:03;163803.50;;;6.16;100.00
41688;BME280;27371;42.686;23.362;2024-03-02T05:56:28;163811.50;;;6.19;100.00
41688;BME280;27371;42.686;23.362;2024-03-02T05:58:54;163843.50;;;6.32;100.00
41688;BME280;27371;42.686;23.362;2024-03-02T06:01:45;163875.47;;;6.44;100.00
41688;BME280;27371;42.686;23.362;2024-03-02T06:04:12;163887.47;;;6.49;100.00
41688;BME280;27371;42.686;23.362;2024-03-02T06:06:39;163888.81;;;6.49;100.00
41688;BME280;27371;42.686;23.362;2024-03-02T06:09:05;163896.78;;;6.52;100.00
41688;BME280;27371;42.686;23.362;2024-03-02T06:11:33;163895.47;;;6.52;100.00
41688;BME280;27371;42.686;23.362;2024-03-02T06:13:59;163894.16;;;6.51;100.00
41688;BME280;27371;42.686;23.362;2024-03-02T06:16:25;163879.50;;;6.45;100.00
41688;BME280;27371;42.686;23.362;2024-03-02T06:18:50;163874.16;;;6.43;100.00
41688;BME280;27371;42.686;23.362;2024-03-02T06:21:16;163868.81;;;6.41;100.00
41688;BME280;27371;42.686;23.362;2024-03-02T06:23:43;163888.81;;;6.49;100.00
41688;BME280;27371;42.686;23.362;2024-03-02T06:26:09;163851.50;;;6.35;100.00
41688;BME280;27371;42.686;23.362;2024-03-02T06:28:34;163846.16;;;6.33;100.00
41688;BME280;27371;42.686;23.362;2024-03-02T06:31:01;163870.13;;;6.42;100.00
41688;BME280;27371;42.686;23.362;2024-03-02T06:33:27;163842.13;;;6.31;100.00
41688;BME280;27371;42.686;23.362;2024-03-02T06:35:52;163819.47;;;6.22;100.00
41688;BME280;27371;42.686;23.362;2024-03-02T06:38:18;163756.88;;;5.98;100.00
41688;BME280;27371;42.686;23.362;2024-03-02T06:40:43;163723.50;;;5.86;100.00
41688;BME280;27371;42.686;23.362;2024-03-02T06:43:09;163715.50;;;5.83;100.00
41688;BME280;27371;42.686;23.362;2024-03-02T06:45:35;163736.84;;;5.91;100.00
41688;BME280;27371;42.686;23.362;2024-03-02T06:48:00;163686.22;;;5.71;100.00
41688;BME280;27371;42.686;23.362;2024-03-02T06:50:26;163770.16;;;6.03;100.00
41688;BME280;27371;42.686;23.362;2024-03-02T06:52:52;163784.81;;;6.09;100.00
41688;BME280;27371;42.686;23.362;2024-03-02T06:55:17;163782.19;;;6.08;100.00
41688;BME280;27371;42.686;23.362;2024-03-02T06:57:43;163806.16;;;6.17;100.00
41688;BME280;27371;42.686;23.362;2024-03-02T07:00:09;163776.84;;;6.06;100.00
41688;BME280;27371;42.686;23.362;2024-03-02T07:02:35;163830.16;;;6.27;100.00
41688;BME280;27371;42.686;23.362;2024-03-02T07:05:02;163819.47;;;6.22;100.00
41688;BME280;27371;42.686;23.362;2024-03-02T07:07:27;163839.47;;;6.30;100.00
41688;BME280;27371;42.686;23.362;2024-03-02T07:09:53;163835.50;;;6.29;100.00
41688;BME280;27371;42.686;23.362;2024-03-02T07:12:19;163811.50;;;6.19;100.00
41688;BME280;27371;42.686;23.362;2024-03-02T07:14:44;163842.13;;;6.31;100.00
41688;BME280;27371;42.686;23.362;2024-03-02T07:17:28;163779.53;;;6.07;100.00
41688;BME280;27371;42.686;23.362;2024-03-02T07:19:54;163730.16;;;5.88;100.00
41688;BME280;27371;42.686;23.362;2024-03-02T07:22:20;163723.50;;;5.86;100.00
41688;BME280;27371;42.686;23.362;2024-03-02T07:24:45;163671.56;;;5.66;100.00
41688;BME280;27371;42.686;23.362;2024-03-02T07:27:12;163658.22;;;5.61;100.00
41688;BME280;27371;42.686;23.362;2024-03-02T07:29:38;163647.53;;;5.56;100.00
41688;BME280;27371;42.686;23.362;2024-03-02T07:32:05;163615.59;;;5.44;100.00
41688;BME280;27371;42.686;23.362;2024-03-02T07:34:31;163626.22;;;5.48;100.00
41688;BME280;27371;42.686;23.362;2024-03-02T07:36:56;163632.91;;;5.51;100.00
41688;BME280;27371;42.686;23.362;2024-03-02T07:39:22;163686.22;;;5.71;100.00
41688;BME280;27371;42.686;23.362;2024-03-02T07:41:48;163716.84;;;5.83;100.00
41688;BME280;27371;42.686;23.362;2024-03-02T07:44:14;163766.19;;;6.02;100.00
41688;BME280;27371;42.686;23.362;2024-03-02T07:46:43;163766.19;;;6.02;100.00
41688;BME280;27371;42.686;23.362;2024-03-02T07:49:09;163707.53;;;5.79;100.00
41688;BME280;27371;42.686;23.362;2024-03-02T07:51:35;163694.19;;;5.74;100.00
41688;BME280;27371;42.686;23.362;2024-03-02T07:54:01;163680.88;;;5.69;100.00
41688;BME280;27371;42.686;23.362;2024-03-02T07:56:27;163707.53;;;5.79;100.00
41688;BME280;27371;42.686;23.362;2024-03-02T07:58:52;163747.53;;;5.95;100.00
41688;BME280;27371;42.686;23.362;2024-03-02T08:01:18;163734.13;;;5.90;100.00
41688;BME280;27371;42.686;23.362;2024-03-02T08:03:44;163806.16;;;6.17;100.00
41688;BME280;27371;42.686;23.362;2024-03-02T08:06:18;163820.81;;;6.23;100.00
41688;BME280;27371;42.686;23.362;2024-03-02T08:08:46;163852.81;;;6.35;100.00
41688;BME280;27371;42.686;23.362;2024-03-02T08:11:12;163843.50;;;6.32;100.00
41688;BME280;27371;42.686;23.362;2024-03-02T08:13:38;163846.16;;;6.33;100.00
41688;BME280;27371;42.686;23.362;2024-03-02T08:16:04;163890.13;;;6.50;100.00
41688;BME280;27371;42.686;23.362;2024-03-02T08:18:32;163903.47;;;6.55;100.00
41688;BME280;27371;42.686;23.362;2024-03-02T08:20:58;163910.13;;;6.57;100.00
41688;BME280;27371;42.686;23.362;2024-03-02T08:23:23;163926.13;;;6.63;100.00
41688;BME280;27371;42.686;23.362;2024-03-02T08:25:49;163907.47;;;6.56;100.00
41688;BME280;27371;42.686;23.362;2024-03-02T08:28:14;163942.09;;;6.69;100.00
41688;BME280;27371;42.686;23.362;2024-03-02T08:30:40;163967.47;;;6.79;100.00
41688;BME280;27371;42.686;23.362;2024-03-02T08:33:06;163956.75;;;6.75;100.00
41688;BME280;27371;42.686;23.362;2024-03-02T08:35:31;163968.78;;;6.80;100.00
41688;BME280;27371;42.686;23.362;2024-03-02T08:38:02;163918.13;;;6.60;100.00
41688;BME280;27371;42.686;23.362;2024-03-02T08:40:28;163819.47;;;6.22;100.00
41688;BME280;27371;42.686;23.362;2024-03-02T08:42:54;163791.50;;;6.12;100.00
41688;BME280;27371;42.686;23.362;2024-03-02T08:45:20;163840.81;;;6.31;100.00
41688;BME280;27371;42.686;23.362;2024-03-02T08:47:46;163874.16;;;6.43;100.00
41688;BME280;27371;42.686;23.362;2024-03-02T08:50:12;163904.78;;;6.55;100.00
41688;BME280;27371;42.686;23.362;2024-03-02T08:52:37;163911.47;;;6.58;100.00
41688;BME280;27371;42.686;23.362;2024-03-02T08:55:03;163963.44;;;6.78;100.00
41688;BME280;27371;42.686;23.362;2024-03-02T08:57:28;163994.13;;;6.89;100.00
41688;BME280;27371;42.686;23.362;2024-03-02T08:59:54;164016.78;;;6.98;100.00
41688;BME280;27371;42.686;23.362;2024-03-02T09:02:20;163782.19;;;6.08;100.00
41688;BME280;27371;42.686;23.362;2024-03-02T09:04:45;164035.44;;;7.05;100.00
41688;BME280;27371;42.686;23.362;2024-03-02T09:07:11;164067.47;;;7.18;100.00
41688;BME280;27371;42.686;23.362;2024-03-02T09:09:36;164099.44;;;7.30;100.00
41688;BME280;27371;42.686;23.362;2024-03-02T09:12:05;164064.75;;;7.17;100.00
41688;BME280;27371;42.686;23.362;2024-03-02T09:14:30;164146.16;;;7.48;100.00
41688;BME280;27371;42.686;23.362;2024-03-02T09:16:56;164175.50;;;7.59;100.00
41688;BME280;27371;42.686;23.362;2024-03-02T09:19:22;164187.50;;;7.64;100.00
41688;BME280;27371;42.686;23.362;2024-03-02T09:21:47;164070.09;;;7.19;100.00
41688;BME280;27371;42.686;23.362;2024-03-02T09:24:13;164211.50;;;7.73;100.00
41688;BME280;27371;42.686;23.362;2024-03-02T09:26:38;164219.50;;;7.76;100.00
41688;BME280;27371;42.686;23.362;2024-03-02T09:29:04;164192.81;;;7.66;100.00
41688;BME280;27371;42.686;23.362;2024-03-02T09:31:29;164152.81;;;7.50;100.00
41688;BME280;27371;42.686;23.362;2024-03-02T09:33:55;164082.13;;;7.23;100.00
41688;BME280;27371;42.686;23.362;2024-03-02T09:36:22;164068.78;;;7.18;100.00
41688;BME280;27371;42.686;23.362;2024-03-02T09:38:48;164079.44;;;7.22;100.00
41688;BME280;27371;42.686;23.362;2024-03-02T09:41:16;164032.78;;;7.04;100.00
41688;BME280;27371;42.686;23.362;2024-03-02T09:43:42;164116.81;;;7.36;100.00
41688;BME280;27371;42.686;23.362;2024-03-02T09:46:11;164095.47;;;7.28;100.00
41688;BME280;27371;42.686;23.362;2024-03-02T09:48:37;164062.13;;;7.16;100.00
41688;BME280;27371;42.686;23.362;2024-03-02T09:51:04;164191.47;;;7.65;100.00
41688;BME280;27371;42.686;23.362;2024-03-02T09:53:32;164219.50;;;7.76;100.00
41688;BME280;27371;42.686;23.362;2024-03-02T09:55:59;164246.19;;;7.86;100.00
41688;BME280;27371;42.686;23.362;2024-03-02T09:58:25;164266.16;;;7.94;100.00
41688;BME280;27371;42.686;23.362;2024-03-02T10:00:51;164298.22;;;8.06;100.00
41688;BME280;27371;42.686;23.362;2024-03-02T10:03:18;164302.19;;;8.08;100.00
41688;BME280;27371;42.686;23.362;2024-03-02T10:05:44;164280.91;;;7.99;100.00
41688;BME280;27371;42.686;23.362;2024-03-02T10:08:09;164298.22;;;8.06;100.00
41688;BME280;27371;42.686;23.362;2024-03-02T10:10:39;164304.88;;;8.09;100.00
41688;BME280;27371;42.686;23.362;2024-03-02T10:13:09;164346.28;;;8.24;100.00
41688;BME280;27371;42.686;23.362;2024-03-02T10:15:36;164327.56;;;8.17;100.00
41688;BME280;27371;42.686;23.362;2024-03-02T10:18:03;164224.84;;;7.78;100.00
41688;BME280;27371;42.686;23.362;2024-03-02T10:20:29;164227.50;;;7.79;100.00
41688;BME280;27371;42.686;23.362;2024-03-02T10:23:14;164183.47;;;7.62;100.00
41688;BME280;27371;42.686;23.362;2024-03-02T10:25:40;164175.50;;;7.59;100.00
41688;BME280;27371;42.686;23.362;2024-03-02T10:28:06;164158.13;;;7.52;100.00
41688;BME280;27371;42.686;23.362;2024-03-02T10:30:35;164206.16;;;7.71;100.00
41688;BME280;27371;42.686;23.362;2024-03-02T10:33:02;164246.19;;;7.86;100.00
41688;BME280;27371;42.686;23.362;2024-03-02T10:35:28;164194.13;;;7.66;100.00
41688;BME280;27371;42.686;23.362;2024-03-02T10:37:54;164123.47;;;7.39;100.00
41688;BME280;27371;42.686;23.362;2024-03-02T10:40:23;164060.78;;;7.15;100.00
41688;BME280;27371;42.686;23.362;2024-03-02T10:42:51;164080.81;;;7.23;100.00
41688;BME280;27371;42.686;23.362;2024-03-02T10:45:19;164106.13;;;7.32;100.00
41688;BME280;27371;42.686;23.362;2024-03-02T10:47:46;164142.13;;;7.46;100.00
41688;BME280;27371;42.686;23.362;2024-03-02T10:50:12;164139.47;;;7.45;100.00
41688;BME280;27371;42.686;23.362;2024-03-02T10:52:38;164204.84;;;7.70;100.00
41688;BME280;27371;42.686;23.362;2024-03-02T10:55:05;164220.81;;;7.76;100.00
41688;BME280;27371;42.686;23.362;2024-03-02T10:57:42;164246.19;;;7.86;100.00
41688;BME280;27371;42.686;23.362;2024-03-02T11:00:12;164212.81;;;7.73;100.00
41688;BME280;27371;42.686;23.362;2024-03-02T11:02:45;164236.81;;;7.82;100.00
41688;BME280;27371;42.686;23.362;2024-03-02T11:05:19;164267.53;;;7.94;100.00
41688;BME280;27371;42.686;23.362;2024-03-02T11:07:48;164279.53;;;7.99;100.00
41688;BME280;27371;42.686;23.362;2024-03-02T11:10:15;164274.22;;;7.97;100.00
41688;BME280;27371;42.686;23.362;2024-03-02T11:12:56;164303.56;;;8.08;100.00
41688;BME280;27371;42.686;23.362;2024-03-02T11:15:25;164227.50;;;7.79;100.00
41688;BME280;27371;42.686;23.362;2024-03-02T11:17:52;164187.50;;;7.64;100.00
41688;BME280;27371;42.686;23.362;2024-03-02T11:20:18;164183.47;;;7.62;100.00
41688;BME280;27371;42.686;23.362;2024-03-02T11:22:45;164195.50;;;7.67;100.00
41688;BME280;27371;42.686;23.362;2024-03-02T11:25:27;164191.47;;;7.65;100.00
41688;BME280;27371;42.686;23.362;2024-03-02T11:33:07;164100.75;;;7.30;100.00
41688;BME280;27371;42.686;23.362;2024-03-02T11:35:37;163946.13;;;6.71;100.00
41688;BME280;27371;42.686;23.362;2024-03-02T11:38:03;164128.78;;;7.41;100.00
41688;BME280;27371;42.686;23.362;2024-03-02T11:40:30;164135.44;;;7.44;100.00
41688;BME280;27371;42.686;23.362;2024-03-02T11:42:59;164184.81;;;7.63;100.00
41688;BME280;27371;42.686;23.362;2024-03-02T11:45:29;164196.84;;;7.67;100.00
41688;BME280;27371;42.686;23.362;2024-03-02T11:47:57;164187.50;;;7.64;100.00
41688;BME280;27371;42.686;23.362;2024-03-02T11:50:51;164230.16;;;7.80;100.00
41688;BME280;27371;42.686;23.362;2024-03-02T11:53:17;164240.84;;;7.84;100.00
41688;BME280;27371;42.686;23.362;2024-03-02T11:55:44;164243.50;;;7.85;100.00
41688;BME280;27371;42.686;23.362;2024-03-02T11:58:12;164242.16;;;7.85;100.00
41688;BME280;27371;42.686;23.362;2024-03-02T12:00:38;164248.84;;;7.87;100.00
41688;BME280;27371;42.686;23.362;2024-03-02T12:03:07;164198.16;;;7.68;100.00
41688;BME280;27371;42.686;23.362;2024-03-02T12:05:34;164287.50;;;8.02;100.00
41688;BME280;27371;42.686;23.362;2024-03-02T12:08:02;164303.56;;;8.08;100.00
41688;BME280;27371;42.686;23.362;2024-03-02T12:10:28;164302.19;;;8.08;100.00
41688;BME280;27371;42.686;23.362;2024-03-02T12:13:01;164355.59;;;8.28;100.00
41688;BME280;27371;42.686;23.362;2024-03-02T12:15:29;164331.59;;;8.19;100.00
41688;BME280;27371;42.686;23.362;2024-03-02T12:17:56;164242.16;;;7.85;100.00
41688;BME280;27371;42.686;23.362;2024-03-02T12:20:23;164152.81;;;7.50;100.00
41688;BME280;27371;42.686;23.362;2024-03-02T12:22:53;164127.44;;;7.41;100.00
41688;BME280;27371;42.686;23.362;2024-03-02T12:25:23;164166.16;;;7.55;100.00
41688;BME280;27371;42.686;23.362;2024-03-02T12:27:50;164223.53;;;7.77;100.00
41688;BME280;27371;42.686;23.362;2024-03-02T12:30:17;164243.50;;;7.85;100.00
41688;BME280;27371;42.686;23.362;2024-03-02T12:32:44;164275.53;;;7.97;100.00
41688;BME280;27371;42.686;23.362;2024-03-02T12:35:11;164288.91;;;8.02;100.00
41688;BME280;27371;42.686;23.362;2024-03-02T12:37:47;164344.91;;;8.24;100.00
41688;BME280;27371;42.686;23.362;2024-03-02T12:40:14;164360.94;;;8.30;100.00
41688;BME280;27371;42.686;23.362;2024-03-02T12:42:40;164379.59;;;8.37;100.00
41688;BME280;27371;42.686;23.362;2024-03-02T12:45:08;164401.00;;;8.45;100.00
41688;BME280;27371;42.686;23.362;2024-03-02T12:47:34;164421.03;;;8.53;100.00